sensor_id;sensor_type;location;lat;lon;timestamp;P1;durP1;ratioP1;P2;durP2;ratioP2
13560;SDS011;6852;51.686;5.314;2022-12-05T00:01:15;32.83;;;16.30;;
13560;SDS011;6852;51.686;5.314;2022-12-05T00:03:55;30.00;;;15.90;;
13560;SDS011;6852;51.686;5.314;2022-12-05T00:06:27;31.90;;;16.53;;
13560;SDS011;6852;51.686;5.314;2022-12-05T00:08:55;29.33;;;15.97;;
13560;SDS011;6852;51.686;5.314;2022-12-05T00:11:24;31.67;;;16.83;;
13560;SDS011;6852;51.686;5.314;2022-12-05T00:13:53;29.27;;;16.07;;
13560;SDS011;6852;51.686;5.314;2022-12-05T00:16:22;30.30;;;17.23;;
13560;SDS011;6852;51.686;5.314;2022-12-05T00:18:51;39.23;;;18.13;;
13560;SDS011;6852;51.686;5.314;2022-12-05T00:21:20;28.87;;;16.93;;
13560;SDS011;6852;51.686;5.314;2022-12-05T00:23:48;31.63;;;17.37;;
13560;SDS011;6852;51.686;5.314;2022-12-05T00:26:16;33.20;;;16.93;;
13560;SDS011;6852;51.686;5.314;2022-12-05T00:28:43;30.33;;;15.83;;
13560;SDS011;6852;51.686;5.314;2022-12-05T00:31:11;28.63;;;17.57;;
13560;SDS011;6852;51.686;5.314;2022-12-05T00:33:41;32.93;;;17.30;;
13560;SDS011;6852;51.686;5.314;2022-12-05T00:36:10;32.60;;;16.87;;
13560;SDS011;6852;51.686;5.314;2022-12-05T00:38:38;30.70;;;17.00;;
13560;SDS011;6852;51.686;5.314;2022-12-05T00:41:07;32.67;;;17.20;;
13560;SDS011;6852;51.686;5.314;2022-12-05T00:43:36;29.33;;;16.20;;
13560;SDS011;6852;51.686;5.314;2022-12-05T00:46:07;31.03;;;17.77;;
13560;SDS011;6852;51.686;5.314;2022-12-05T00:48:36;26.60;;;15.80;;
13560;SDS011;6852;51.686;5.314;2022-12-05T00:51:08;28.67;;;17.33;;
13560;SDS011;6852;51.686;5.314;2022-12-05T00:53:40;27.27;;;15.77;;
13560;SDS011;6852;51.686;5.314;2022-12-05T00:56:12;33.97;;;16.77;;
13560;SDS011;6852;51.686;5.314;2022-12-05T00:58:40;33.23;;;17.27;;
13560;SDS011;6852;51.686;5.314;2022-12-05T01:01:09;28.73;;;16.33;;
13560;SDS011;6852;51.686;5.314;2022-12-05T01:03:44;29.53;;;16.67;;
13560;SDS011;6852;51.686;5.314;2022-12-05T01:06:13;28.97;;;17.07;;
13560;SDS011;6852;51.686;5.314;2022-12-05T01:08:41;29.93;;;16.57;;
13560;SDS011;6852;51.686;5.314;2022-12-05T01:11:13;28.17;;;16.07;;
13560;SDS011;6852;51.686;5.314;2022-12-05T01:13:41;32.47;;;17.27;;
13560;SDS011;6852;51.686;5.314;2022-12-05T01:16:15;32.30;;;16.63;;
13560;SDS011;6852;51.686;5.314;2022-12-05T01:18:44;29.13;;;16.27;;
13560;SDS011;6852;51.686;5.314;2022-12-05T01:21:11;34.83;;;17.33;;
13560;SDS011;6852;51.686;5.314;2022-12-05T01:23:38;28.43;;;16.17;;
13560;SDS011;6852;51.686;5.314;2022-12-05T01:26:06;30.87;;;17.43;;
13560;SDS011;6852;51.686;5.314;2022-12-05T01:28:35;30.93;;;17.17;;
13560;SDS011;6852;51.686;5.314;2022-12-05T01:31:03;35.93;;;17.70;;
13560;SDS011;6852;51.686;5.314;2022-12-05T01:33:32;25.47;;;15.20;;
13560;SDS011;6852;51.686;5.314;2022-12-05T01:36:00;31.47;;;16.90;;
13560;SDS011;6852;51.686;5.314;2022-12-05T01:38:28;29.50;;;16.83;;
13560;SDS011;6852;51.686;5.314;2022-12-05T01:40:59;30.10;;;16.97;;
13560;SDS011;6852;51.686;5.314;2022-12-05T01:43:27;31.80;;;16.80;;
13560;SDS011;6852;51.686;5.314;2022-12-05T01:45:54;30.97;;;17.90;;
13560;SDS011;6852;51.686;5.314;2022-12-05T01:48:23;31.13;;;16.73;;
13560;SDS011;6852;51.686;5.314;2022-12-05T01:50:53;30.20;;;17.47;;
13560;SDS011;6852;51.686;5.314;2022-12-05T01:53:20;32.40;;;17.23;;
13560;SDS011;6852;51.686;5.314;2022-12-05T01:55:47;29.83;;;16.37;;
13560;SDS011;6852;51.686;5.314;2022-12-05T01:58:16;29.93;;;17.17;;
13560;SDS011;6852;51.686;5.314;2022-12-05T02:00:44;31.87;;;17.13;;
13560;SDS011;6852;51.686;5.314;2022-12-05T02:03:13;32.90;;;17.73;;
13560;SDS011;6852;51.686;5.314;2022-12-05T02:05:47;31.70;;;17.33;;
13560;SDS011;6852;51.686;5.314;2022-12-05T02:08:16;33.63;;;18.43;;
13560;SDS011;6852;51.686;5.314;2022-12-05T02:10:50;31.13;;;17.53;;
13560;SDS011;6852;51.686;5.314;2022-12-05T02:16:13;31.40;;;18.47;;
13560;SDS011;6852;51.686;5.314;2022-12-05T02:30:07;30.63;;;17.27;;
13560;SDS011;6852;51.686;5.314;2022-12-05T02:35:38;33.07;;;17.57;;
13560;SDS011;6852;51.686;5.314;2022-12-05T02:38:28;36.17;;;19.50;;
13560;SDS011;6852;51.686;5.314;2022-12-05T02:41:24;38.30;;;18.23;;
13560;SDS011;6852;51.686;5.314;2022-12-05T02:44:06;29.73;;;17.93;;
13560;SDS011;6852;51.686;5.314;2022-12-05T02:46:41;33.47;;;18.50;;
13560;SDS011;6852;51.686;5.314;2022-12-05T02:49:10;30.83;;;17.83;;
13560;SDS011;6852;51.686;5.314;2022-12-05T02:51:42;34.47;;;17.60;;
13560;SDS011;6852;51.686;5.314;2022-12-05T02:54:15;31.17;;;17.90;;
13560;SDS011;6852;51.686;5.314;2022-12-05T02:56:46;33.60;;;17.40;;
13560;SDS011;6852;51.686;5.314;2022-12-05T02:59:14;31.30;;;17.33;;
13560;SDS011;6852;51.686;5.314;2022-12-05T03:01:48;31.87;;;18.77;;
13560;SDS011;6852;51.686;5.314;2022-12-05T03:04:15;35.07;;;19.73;;
13560;SDS011;6852;51.686;5.314;2022-12-05T03:06:50;29.87;;;16.23;;
13560;SDS011;6852;51.686;5.314;2022-12-05T03:09:28;34.90;;;18.17;;
13560;SDS011;6852;51.686;5.314;2022-12-05T03:12:12;33.53;;;18.10;;
13560;SDS011;6852;51.686;5.314;2022-12-05T03:14:45;37.00;;;19.33;;
13560;SDS011;6852;51.686;5.314;2022-12-05T03:17:16;36.50;;;18.33;;
13560;SDS011;6852;51.686;5.314;2022-12-05T03:19:55;35.20;;;18.27;;
13560;SDS011;6852;51.686;5.314;2022-12-05T03:25:39;33.67;;;16.77;;
13560;SDS011;6852;51.686;5.314;2022-12-05T03:28:14;34.83;;;17.77;;
13560;SDS011;6852;51.686;5.314;2022-12-05T03:30:55;35.40;;;19.53;;
13560;SDS011;6852;51.686;5.314;2022-12-05T03:33:28;37.33;;;18.37;;
13560;SDS011;6852;51.686;5.314;2022-12-05T03:36:08;32.53;;;18.73;;
13560;SDS011;6852;51.686;5.314;2022-12-05T03:38:51;36.03;;;17.87;;
13560;SDS011;6852;51.686;5.314;2022-12-05T03:41:37;32.13;;;16.83;;
13560;SDS011;6852;51.686;5.314;2022-12-05T03:46:52;33.80;;;18.83;;
13560;SDS011;6852;51.686;5.314;2022-12-05T03:49:37;37.60;;;18.63;;
13560;SDS011;6852;51.686;5.314;2022-12-05T03:52:16;33.10;;;18.93;;
13560;SDS011;6852;51.686;5.314;2022-12-05T03:54:50;36.67;;;19.77;;
13560;SDS011;6852;51.686;5.314;2022-12-05T03:57:26;36.00;;;18.80;;
13560;SDS011;6852;51.686;5.314;2022-12-05T03:59:58;33.47;;;17.23;;
13560;SDS011;6852;51.686;5.314;2022-12-05T04:02:32;36.20;;;18.80;;
13560;SDS011;6852;51.686;5.314;2022-12-05T04:05:22;32.13;;;18.67;;
13560;SDS011;6852;51.686;5.314;2022-12-05T04:08:05;33.03;;;18.33;;
13560;SDS011;6852;51.686;5.314;2022-12-05T04:10:36;32.47;;;17.60;;
13560;SDS011;6852;51.686;5.314;2022-12-05T04:13:20;35.97;;;18.27;;
13560;SDS011;6852;51.686;5.314;2022-12-05T04:16:08;34.13;;;17.60;;
13560;SDS011;6852;51.686;5.314;2022-12-05T04:19:02;32.97;;;17.73;;
13560;SDS011;6852;51.686;5.314;2022-12-05T04:21:39;35.43;;;17.17;;
13560;SDS011;6852;51.686;5.314;2022-12-05T04:24:11;33.47;;;18.50;;
13560;SDS011;6852;51.686;5.314;2022-12-05T04:29:41;33.10;;;18.63;;
13560;SDS011;6852;51.686;5.314;2022-12-05T04:32:36;33.53;;;18.07;;
13560;SDS011;6852;51.686;5.314;2022-12-05T04:35:32;32.20;;;17.53;;
13560;SDS011;6852;51.686;5.314;2022-12-05T04:38:16;33.80;;;18.10;;
13560;SDS011;6852;51.686;5.314;2022-12-05T04:40:54;33.33;;;18.57;;
13560;SDS011;6852;51.686;5.314;2022-12-05T04:43:24;31.83;;;17.03;;
13560;SDS011;6852;51.686;5.314;2022-12-05T04:45:53;31.47;;;15.70;;
13560;SDS011;6852;51.686;5.314;2022-12-05T04:48:24;32.30;;;16.73;;
13560;SDS011;6852;51.686;5.314;2022-12-05T04:50:53;31.83;;;17.23;;
13560;SDS011;6852;51.686;5.314;2022-12-05T04:53:22;31.80;;;16.63;;
13560;SDS011;6852;51.686;5.314;2022-12-05T04:55:52;34.93;;;16.40;;
13560;SDS011;6852;51.686;5.314;2022-12-05T04:58:23;35.97;;;16.37;;
13560;SDS011;6852;51.686;5.314;2022-12-05T05:06:02;30.43;;;16.90;;
13560;SDS011;6852;51.686;5.314;2022-12-05T05:08:29;28.23;;;15.73;;
13560;SDS011;6852;51.686;5.314;2022-12-05T05:11:08;29.47;;;15.33;;
13560;SDS011;6852;51.686;5.314;2022-12-05T05:13:39;29.93;;;16.87;;
13560;SDS011;6852;51.686;5.314;2022-12-05T05:16:06;31.70;;;15.47;;
13560;SDS011;6852;51.686;5.314;2022-12-05T05:18:33;32.30;;;15.63;;
13560;SDS011;6852;51.686;5.314;2022-12-05T05:21:00;28.90;;;15.77;;
13560;SDS011;6852;51.686;5.314;2022-12-05T05:23:27;27.47;;;14.77;;
13560;SDS011;6852;51.686;5.314;2022-12-05T05:25:54;25.97;;;15.57;;
13560;SDS011;6852;51.686;5.314;2022-12-05T05:28:21;29.50;;;15.60;;
13560;SDS011;6852;51.686;5.314;2022-12-05T05:30:48;26.93;;;15.73;;
13560;SDS011;6852;51.686;5.314;2022-12-05T05:33:15;28.17;;;15.00;;
13560;SDS011;6852;51.686;5.314;2022-12-05T05:35:42;26.50;;;15.37;;
13560;SDS011;6852;51.686;5.314;2022-12-05T05:38:09;28.20;;;16.10;;
13560;SDS011;6852;51.686;5.314;2022-12-05T05:40:35;29.40;;;15.13;;
13560;SDS011;6852;51.686;5.314;2022-12-05T05:43:02;29.87;;;15.60;;
13560;SDS011;6852;51.686;5.314;2022-12-05T05:45:29;27.03;;;15.70;;
13560;SDS011;6852;51.686;5.314;2022-12-05T05:47:56;30.57;;;15.33;;
13560;SDS011;6852;51.686;5.314;2022-12-05T05:50:23;25.13;;;14.97;;
13560;SDS011;6852;51.686;5.314;2022-12-05T05:52:50;30.37;;;16.03;;
13560;SDS011;6852;51.686;5.314;2022-12-05T05:55:16;29.30;;;15.07;;
13560;SDS011;6852;51.686;5.314;2022-12-05T05:57:44;29.23;;;15.20;;
13560;SDS011;6852;51.686;5.314;2022-12-05T06:00:11;27.03;;;14.27;;
13560;SDS011;6852;51.686;5.314;2022-12-05T06:02:38;31.40;;;15.70;;
13560;SDS011;6852;51.686;5.314;2022-12-05T06:05:05;33.50;;;16.00;;
13560;SDS011;6852;51.686;5.314;2022-12-05T06:07:32;30.63;;;16.10;;
13560;SDS011;6852;51.686;5.314;2022-12-05T06:09:59;27.90;;;15.43;;
13560;SDS011;6852;51.686;5.314;2022-12-05T06:12:27;29.07;;;16.10;;
13560;SDS011;6852;51.686;5.314;2022-12-05T06:14:53;27.23;;;15.50;;
13560;SDS011;6852;51.686;5.314;2022-12-05T06:17:20;28.00;;;15.40;;
13560;SDS011;6852;51.686;5.314;2022-12-05T06:19:47;26.30;;;15.10;;
13560;SDS011;6852;51.686;5.314;2022-12-05T06:22:14;30.47;;;15.80;;
13560;SDS011;6852;51.686;5.314;2022-12-05T06:24:41;30.63;;;17.50;;
13560;SDS011;6852;51.686;5.314;2022-12-05T06:27:07;29.37;;;16.13;;
13560;SDS011;6852;51.686;5.314;2022-12-05T06:29:34;25.93;;;14.70;;
13560;SDS011;6852;51.686;5.314;2022-12-05T06:32:01;29.73;;;16.17;;
13560;SDS011;6852;51.686;5.314;2022-12-05T06:34:28;25.60;;;14.37;;
13560;SDS011;6852;51.686;5.314;2022-12-05T06:36:57;29.67;;;15.80;;
13560;SDS011;6852;51.686;5.314;2022-12-05T06:39:25;26.47;;;15.20;;
13560;SDS011;6852;51.686;5.314;2022-12-05T06:41:52;25.33;;;15.23;;
13560;SDS011;6852;51.686;5.314;2022-12-05T06:44:18;24.60;;;15.17;;
13560;SDS011;6852;51.686;5.314;2022-12-05T06:46:47;29.10;;;14.93;;
13560;SDS011;6852;51.686;5.314;2022-12-05T06:49:14;25.60;;;15.77;;
13560;SDS011;6852;51.686;5.314;2022-12-05T06:51:41;26.47;;;14.43;;
13560;SDS011;6852;51.686;5.314;2022-12-05T06:54:07;31.23;;;15.40;;
13560;SDS011;6852;51.686;5.314;2022-12-05T06:56:36;27.60;;;15.40;;
13560;SDS011;6852;51.686;5.314;2022-12-05T06:59:06;30.73;;;15.33;;
13560;SDS011;6852;51.686;5.314;2022-12-05T07:01:32;26.03;;;14.77;;
13560;SDS011;6852;51.686;5.314;2022-12-05T07:06:45;26.10;;;15.33;;
13560;SDS011;6852;51.686;5.314;2022-12-05T07:09:20;25.23;;;13.87;;
13560;SDS011;6852;51.686;5.314;2022-12-05T07:12:09;27.13;;;14.63;;
13560;SDS011;6852;51.686;5.314;2022-12-05T07:14:41;26.43;;;14.10;;
13560;SDS011;6852;51.686;5.314;2022-12-05T07:17:15;26.20;;;14.73;;
13560;SDS011;6852;51.686;5.314;2022-12-05T07:19:43;27.67;;;15.03;;
13560;SDS011;6852;51.686;5.314;2022-12-05T07:22:11;27.87;;;16.20;;
13560;SDS011;6852;51.686;5.314;2022-12-05T07:24:41;21.50;;;13.93;;
13560;SDS011;6852;51.686;5.314;2022-12-05T07:27:08;26.37;;;15.13;;
13560;SDS011;6852;51.686;5.314;2022-12-05T07:29:35;28.03;;;14.93;;
13560;SDS011;6852;51.686;5.314;2022-12-05T07:32:02;25.07;;;15.07;;
13560;SDS011;6852;51.686;5.314;2022-12-05T07:34:29;25.30;;;15.43;;
13560;SDS011;6852;51.686;5.314;2022-12-05T07:36:56;26.43;;;14.63;;
13560;SDS011;6852;51.686;5.314;2022-12-05T07:39:23;29.07;;;15.03;;
13560;SDS011;6852;51.686;5.314;2022-12-05T07:41:50;23.20;;;13.77;;
13560;SDS011;6852;51.686;5.314;2022-12-05T07:44:16;27.83;;;14.17;;
13560;SDS011;6852;51.686;5.314;2022-12-05T07:46:43;27.50;;;14.90;;
13560;SDS011;6852;51.686;5.314;2022-12-05T07:49:10;28.87;;;14.93;;
13560;SDS011;6852;51.686;5.314;2022-12-05T07:51:37;27.83;;;14.27;;
13560;SDS011;6852;51.686;5.314;2022-12-05T07:54:04;24.20;;;14.00;;
13560;SDS011;6852;51.686;5.314;2022-12-05T07:56:32;25.97;;;13.27;;
13560;SDS011;6852;51.686;5.314;2022-12-05T07:58:59;25.40;;;15.10;;
13560;SDS011;6852;51.686;5.314;2022-12-05T08:01:27;25.03;;;14.30;;
13560;SDS011;6852;51.686;5.314;2022-12-05T08:03:56;26.40;;;15.53;;
13560;SDS011;6852;51.686;5.314;2022-12-05T08:06:28;24.87;;;13.77;;
13560;SDS011;6852;51.686;5.314;2022-12-05T08:08:55;23.13;;;13.53;;
13560;SDS011;6852;51.686;5.314;2022-12-05T08:11:24;23.73;;;14.47;;
13560;SDS011;6852;51.686;5.314;2022-12-05T08:13:56;25.47;;;14.63;;
13560;SDS011;6852;51.686;5.314;2022-12-05T08:16:25;26.03;;;13.80;;
13560;SDS011;6852;51.686;5.314;2022-12-05T08:19:04;22.90;;;13.93;;
13560;SDS011;6852;51.686;5.314;2022-12-05T08:21:33;24.93;;;14.07;;
13560;SDS011;6852;51.686;5.314;2022-12-05T08:24:00;22.87;;;13.70;;
13560;SDS011;6852;51.686;5.314;2022-12-05T08:26:29;23.83;;;14.10;;
13560;SDS011;6852;51.686;5.314;2022-12-05T08:31:27;22.93;;;14.80;;
13560;SDS011;6852;51.686;5.314;2022-12-05T08:33:56;23.37;;;13.40;;
13560;SDS011;6852;51.686;5.314;2022-12-05T08:36:25;24.23;;;14.60;;
13560;SDS011;6852;51.686;5.314;2022-12-05T08:38:57;24.17;;;14.43;;
13560;SDS011;6852;51.686;5.314;2022-12-05T08:41:25;23.87;;;14.17;;
13560;SDS011;6852;51.686;5.314;2022-12-05T08:43:55;20.30;;;12.47;;
13560;SDS011;6852;51.686;5.314;2022-12-05T08:46:24;20.87;;;13.23;;
13560;SDS011;6852;51.686;5.314;2022-12-05T08:48:51;25.57;;;13.40;;
13560;SDS011;6852;51.686;5.314;2022-12-05T08:51:18;23.83;;;13.40;;
13560;SDS011;6852;51.686;5.314;2022-12-05T08:53:44;22.20;;;14.10;;
13560;SDS011;6852;51.686;5.314;2022-12-05T08:56:12;21.10;;;13.83;;
13560;SDS011;6852;51.686;5.314;2022-12-05T08:58:39;23.07;;;13.47;;
13560;SDS011;6852;51.686;5.314;2022-12-05T09:01:10;24.53;;;14.57;;
13560;SDS011;6852;51.686;5.314;2022-12-05T09:03:39;22.77;;;13.37;;
13560;SDS011;6852;51.686;5.314;2022-12-05T09:06:17;22.77;;;13.73;;
13560;SDS011;6852;51.686;5.314;2022-12-05T09:08:46;19.87;;;13.53;;
13560;SDS011;6852;51.686;5.314;2022-12-05T09:11:15;22.30;;;13.90;;
13560;SDS011;6852;51.686;5.314;2022-12-05T09:13:44;23.80;;;13.07;;
13560;SDS011;6852;51.686;5.314;2022-12-05T09:16:12;26.23;;;13.87;;
13560;SDS011;6852;51.686;5.314;2022-12-05T09:18:48;21.17;;;12.63;;
13560;SDS011;6852;51.686;5.314;2022-12-05T09:21:16;27.30;;;14.50;;
13560;SDS011;6852;51.686;5.314;2022-12-05T09:23:45;20.90;;;13.30;;
13560;SDS011;6852;51.686;5.314;2022-12-05T09:26:13;22.10;;;13.47;;
13560;SDS011;6852;51.686;5.314;2022-12-05T09:28:42;23.50;;;13.53;;
13560;SDS011;6852;51.686;5.314;2022-12-05T09:31:10;21.30;;;13.07;;
13560;SDS011;6852;51.686;5.314;2022-12-05T09:33:40;23.30;;;13.33;;
13560;SDS011;6852;51.686;5.314;2022-12-05T09:36:10;20.40;;;13.30;;
13560;SDS011;6852;51.686;5.314;2022-12-05T09:38:44;20.93;;;12.27;;
13560;SDS011;6852;51.686;5.314;2022-12-05T09:44:24;17.80;;;11.57;;
13560;SDS011;6852;51.686;5.314;2022-12-05T09:50:05;18.37;;;11.63;;
13560;SDS011;6852;51.686;5.314;2022-12-05T09:55:54;17.07;;;10.87;;
13560;SDS011;6852;51.686;5.314;2022-12-05T10:09:29;16.27;;;10.23;;
13560;SDS011;6852;51.686;5.314;2022-12-05T10:18:01;12.77;;;9.37;;
13560;SDS011;6852;51.686;5.314;2022-12-05T10:26:14;15.97;;;10.70;;
13560;SDS011;6852;51.686;5.314;2022-12-05T10:31:27;12.67;;;9.17;;
13560;SDS011;6852;51.686;5.314;2022-12-05T10:34:03;13.57;;;9.27;;
13560;SDS011;6852;51.686;5.314;2022-12-05T10:36:37;14.30;;;9.50;;
13560;SDS011;6852;51.686;5.314;2022-12-05T10:39:04;14.00;;;8.73;;
13560;SDS011;6852;51.686;5.314;2022-12-05T10:41:36;13.93;;;9.30;;
13560;SDS011;6852;51.686;5.314;2022-12-05T10:44:04;12.10;;;8.53;;
13560;SDS011;6852;51.686;5.314;2022-12-05T10:46:31;14.07;;;8.87;;
13560;SDS011;6852;51.686;5.314;2022-12-05T10:48:57;10.97;;;7.97;;
13560;SDS011;6852;51.686;5.314;2022-12-05T10:51:27;9.57;;;7.77;;
13560;SDS011;6852;51.686;5.314;2022-12-05T10:54:00;11.23;;;7.77;;
13560;SDS011;6852;51.686;5.314;2022-12-05T10:56:45;13.33;;;8.23;;
13560;SDS011;6852;51.686;5.314;2022-12-05T10:59:21;12.03;;;8.30;;
13560;SDS011;6852;51.686;5.314;2022-12-05T11:01:51;16.30;;;9.23;;
13560;SDS011;6852;51.686;5.314;2022-12-05T11:04:26;11.63;;;7.97;;
13560;SDS011;6852;51.686;5.314;2022-12-05T11:06:59;11.30;;;8.37;;
13560;SDS011;6852;51.686;5.314;2022-12-05T11:09:30;12.23;;;8.40;;
13560;SDS011;6852;51.686;5.314;2022-12-05T11:12:00;12.40;;;8.33;;
13560;SDS011;6852;51.686;5.314;2022-12-05T11:14:55;13.00;;;8.20;;
13560;SDS011;6852;51.686;5.314;2022-12-05T11:17:34;10.27;;;8.03;;
13560;SDS011;6852;51.686;5.314;2022-12-05T11:22:50;11.20;;;7.10;;
13560;SDS011;6852;51.686;5.314;2022-12-05T11:25:22;10.40;;;7.63;;
13560;SDS011;6852;51.686;5.314;2022-12-05T11:27:57;11.20;;;8.13;;
13560;SDS011;6852;51.686;5.314;2022-12-05T11:33:59;12.67;;;7.67;;
13560;SDS011;6852;51.686;5.314;2022-12-05T11:36:40;10.77;;;7.10;;
13560;SDS011;6852;51.686;5.314;2022-12-05T11:39:11;11.00;;;7.47;;
13560;SDS011;6852;51.686;5.314;2022-12-05T11:47:19;9.40;;;6.63;;
13560;SDS011;6852;51.686;5.314;2022-12-05T11:56:22;10.33;;;6.67;;
13560;SDS011;6852;51.686;5.314;2022-12-05T11:58:55;10.60;;;6.90;;
13560;SDS011;6852;51.686;5.314;2022-12-05T12:01:51;10.43;;;7.20;;
13560;SDS011;6852;51.686;5.314;2022-12-05T12:04:36;9.63;;;6.80;;
13560;SDS011;6852;51.686;5.314;2022-12-05T12:07:38;11.17;;;6.90;;
13560;SDS011;6852;51.686;5.314;2022-12-05T12:10:23;11.13;;;6.33;;
13560;SDS011;6852;51.686;5.314;2022-12-05T12:13:22;9.83;;;6.17;;
13560;SDS011;6852;51.686;5.314;2022-12-05T12:16:08;9.90;;;7.40;;
13560;SDS011;6852;51.686;5.314;2022-12-05T12:27:38;12.13;;;7.70;;
13560;SDS011;6852;51.686;5.314;2022-12-05T12:33:33;9.37;;;6.90;;
13560;SDS011;6852;51.686;5.314;2022-12-05T12:36:17;9.87;;;7.33;;
13560;SDS011;6852;51.686;5.314;2022-12-05T12:47:17;12.33;;;7.40;;
13560;SDS011;6852;51.686;5.314;2022-12-05T12:50:22;10.37;;;7.03;;
13560;SDS011;6852;51.686;5.314;2022-12-05T12:53:08;12.27;;;7.87;;
13560;SDS011;6852;51.686;5.314;2022-12-05T12:59:01;11.20;;;7.00;;
13560;SDS011;6852;51.686;5.314;2022-12-05T13:01:45;12.77;;;7.13;;
13560;SDS011;6852;51.686;5.314;2022-12-05T13:10:16;12.13;;;7.70;;
13560;SDS011;6852;51.686;5.314;2022-12-05T13:12:50;10.57;;;7.37;;
13560;SDS011;6852;51.686;5.314;2022-12-05T13:15:20;9.97;;;7.40;;
13560;SDS011;6852;51.686;5.314;2022-12-05T13:17:55;11.73;;;8.00;;
13560;SDS011;6852;51.686;5.314;2022-12-05T13:20:22;9.20;;;7.50;;
13560;SDS011;6852;51.686;5.314;2022-12-05T13:22:53;11.40;;;8.10;;
13560;SDS011;6852;51.686;5.314;2022-12-05T13:25:20;10.40;;;7.37;;
13560;SDS011;6852;51.686;5.314;2022-12-05T13:27:53;11.60;;;7.70;;
13560;SDS011;6852;51.686;5.314;2022-12-05T13:30:23;11.57;;;8.07;;
13560;SDS011;6852;51.686;5.314;2022-12-05T13:32:54;11.90;;;7.80;;
13560;SDS011;6852;51.686;5.314;2022-12-05T13:35:30;10.17;;;7.03;;
13560;SDS011;6852;51.686;5.314;2022-12-05T13:38:19;10.97;;;7.53;;
13560;SDS011;6852;51.686;5.314;2022-12-05T13:41:11;10.70;;;7.27;;
13560;SDS011;6852;51.686;5.314;2022-12-05T13:43:58;10.53;;;7.03;;
13560;SDS011;6852;51.686;5.314;2022-12-05T13:46:32;12.27;;;7.93;;
13560;SDS011;6852;51.686;5.314;2022-12-05T13:49:02;12.77;;;8.70;;
13560;SDS011;6852;51.686;5.314;2022-12-05T13:51:40;10.20;;;7.97;;
13560;SDS011;6852;51.686;5.314;2022-12-05T13:56:48;10.63;;;7.83;;
13560;SDS011;6852;51.686;5.314;2022-12-05T14:07:50;10.93;;;7.90;;
13560;SDS011;6852;51.686;5.314;2022-12-05T14:15:42;11.93;;;7.80;;
13560;SDS011;6852;51.686;5.314;2022-12-05T14:18:14;15.03;;;8.47;;
13560;SDS011;6852;51.686;5.314;2022-12-05T14:29:59;12.03;;;8.63;;
13560;SDS011;6852;51.686;5.314;2022-12-05T14:32:29;12.57;;;9.43;;
13560;SDS011;6852;51.686;5.314;2022-12-05T14:37:30;12.07;;;9.03;;
13560;SDS011;6852;51.686;5.314;2022-12-05T14:40:03;14.77;;;10.10;;
13560;SDS011;6852;51.686;5.314;2022-12-05T14:43:16;12.40;;;8.67;;
13560;SDS011;6852;51.686;5.314;2022-12-05T14:48:51;13.47;;;9.60;;
13560;SDS011;6852;51.686;5.314;2022-12-05T14:54:09;14.70;;;10.60;;
13560;SDS011;6852;51.686;5.314;2022-12-05T14:56:45;16.27;;;11.20;;
13560;SDS011;6852;51.686;5.314;2022-12-05T15:01:56;15.93;;;9.83;;
13560;SDS011;6852;51.686;5.314;2022-12-05T15:04:45;13.83;;;9.37;;
13560;SDS011;6852;51.686;5.314;2022-12-05T15:07:25;13.97;;;9.33;;
13560;SDS011;6852;51.686;5.314;2022-12-05T15:10:13;13.33;;;9.63;;
13560;SDS011;6852;51.686;5.314;2022-12-05T15:12:46;14.43;;;9.90;;
13560;SDS011;6852;51.686;5.314;2022-12-05T15:24:11;10.30;;;7.90;;
13560;SDS011;6852;51.686;5.314;2022-12-05T15:29:15;11.20;;;7.33;;
13560;SDS011;6852;51.686;5.314;2022-12-05T15:42:30;8.03;;;5.97;;
13560;SDS011;6852;51.686;5.314;2022-12-05T15:47:41;9.43;;;5.60;;
13560;SDS011;6852;51.686;5.314;2022-12-05T15:50:16;5.97;;;4.43;;
13560;SDS011;6852;51.686;5.314;2022-12-05T15:55:39;6.17;;;4.10;;
13560;SDS011;6852;51.686;5.314;2022-12-05T15:58:22;5.20;;;4.13;;
13560;SDS011;6852;51.686;5.314;2022-12-05T16:00:56;4.97;;;3.53;;
13560;SDS011;6852;51.686;5.314;2022-12-05T16:08:49;4.83;;;3.23;;
13560;SDS011;6852;51.686;5.314;2022-12-05T16:11:16;3.87;;;3.17;;
13560;SDS011;6852;51.686;5.314;2022-12-05T16:13:45;4.17;;;3.00;;
13560;SDS011;6852;51.686;5.314;2022-12-05T16:16:19;5.90;;;3.13;;
13560;SDS011;6852;51.686;5.314;2022-12-05T16:18:55;3.73;;;2.87;;
13560;SDS011;6852;51.686;5.314;2022-12-05T16:21:31;3.67;;;2.73;;
13560;SDS011;6852;51.686;5.314;2022-12-05T16:24:05;2.67;;;2.30;;
13560;SDS011;6852;51.686;5.314;2022-12-05T16:26:37;3.97;;;2.90;;
13560;SDS011;6852;51.686;5.314;2022-12-05T16:29:04;3.50;;;2.70;;
13560;SDS011;6852;51.686;5.314;2022-12-05T16:31:32;5.33;;;2.80;;
13560;SDS011;6852;51.686;5.314;2022-12-05T16:34:03;3.77;;;3.33;;
13560;SDS011;6852;51.686;5.314;2022-12-05T16:36:32;3.67;;;3.00;;
13560;SDS011;6852;51.686;5.314;2022-12-05T16:39:03;5.37;;;3.50;;
13560;SDS011;6852;51.686;5.314;2022-12-05T16:41:35;4.67;;;3.60;;
13560;SDS011;6852;51.686;5.314;2022-12-05T16:44:04;4.40;;;3.30;;
13560;SDS011;6852;51.686;5.314;2022-12-05T16:46:51;4.17;;;3.60;;
13560;SDS011;6852;51.686;5.314;2022-12-05T16:49:23;8.13;;;5.77;;
13560;SDS011;6852;51.686;5.314;2022-12-05T16:52:10;6.77;;;4.83;;
13560;SDS011;6852;51.686;5.314;2022-12-05T16:54:40;5.43;;;4.00;;
13560;SDS011;6852;51.686;5.314;2022-12-05T16:57:08;6.17;;;4.23;;
13560;SDS011;6852;51.686;5.314;2022-12-05T16:59:38;8.23;;;6.57;;
13560;SDS011;6852;51.686;5.314;2022-12-05T17:02:11;6.60;;;4.97;;
13560;SDS011;6852;51.686;5.314;2022-12-05T17:04:40;5.83;;;3.63;;
13560;SDS011;6852;51.686;5.314;2022-12-05T17:07:07;4.77;;;3.60;;
13560;SDS011;6852;51.686;5.314;2022-12-05T17:09:34;4.93;;;3.73;;
13560;SDS011;6852;51.686;5.314;2022-12-05T17:12:02;4.67;;;3.43;;
13560;SDS011;6852;51.686;5.314;2022-12-05T17:14:35;6.60;;;3.57;;
13560;SDS011;6852;51.686;5.314;2022-12-05T17:17:02;5.57;;;3.90;;
13560;SDS011;6852;51.686;5.314;2022-12-05T17:19:31;7.30;;;4.70;;
13560;SDS011;6852;51.686;5.314;2022-12-05T17:21:58;5.03;;;4.37;;
13560;SDS011;6852;51.686;5.314;2022-12-05T17:24:25;4.67;;;3.70;;
13560;SDS011;6852;51.686;5.314;2022-12-05T17:26:53;5.93;;;3.80;;
13560;SDS011;6852;51.686;5.314;2022-12-05T17:29:20;5.47;;;3.77;;
13560;SDS011;6852;51.686;5.314;2022-12-05T17:31:47;4.87;;;3.47;;
13560;SDS011;6852;51.686;5.314;2022-12-05T17:34:15;5.70;;;3.77;;
13560;SDS011;6852;51.686;5.314;2022-12-05T17:36:43;5.40;;;3.83;;
13560;SDS011;6852;51.686;5.314;2022-12-05T17:39:10;4.97;;;3.93;;
13560;SDS011;6852;51.686;5.314;2022-12-05T17:41:37;4.93;;;3.83;;
13560;SDS011;6852;51.686;5.314;2022-12-05T17:44:04;4.77;;;3.60;;
13560;SDS011;6852;51.686;5.314;2022-12-05T17:46:32;5.07;;;3.77;;
13560;SDS011;6852;51.686;5.314;2022-12-05T17:48:59;4.93;;;4.07;;
13560;SDS011;6852;51.686;5.314;2022-12-05T17:51:25;5.47;;;3.63;;
13560;SDS011;6852;51.686;5.314;2022-12-05T17:53:52;4.77;;;3.93;;
13560;SDS011;6852;51.686;5.314;2022-12-05T17:56:19;4.80;;;3.80;;
13560;SDS011;6852;51.686;5.314;2022-12-05T17:58:46;6.07;;;4.10;;
13560;SDS011;6852;51.686;5.314;2022-12-05T18:01:16;4.17;;;3.43;;
13560;SDS011;6852;51.686;5.314;2022-12-05T18:03:45;5.63;;;3.87;;
13560;SDS011;6852;51.686;5.314;2022-12-05T18:06:12;9.03;;;5.53;;
13560;SDS011;6852;51.686;5.314;2022-12-05T18:08:39;4.40;;;3.70;;
13560;SDS011;6852;51.686;5.314;2022-12-05T18:11:09;4.30;;;3.27;;
13560;SDS011;6852;51.686;5.314;2022-12-05T18:13:37;5.73;;;3.87;;
13560;SDS011;6852;51.686;5.314;2022-12-05T18:16:04;4.40;;;3.63;;
13560;SDS011;6852;51.686;5.314;2022-12-05T18:18:31;4.87;;;3.77;;
13560;SDS011;6852;51.686;5.314;2022-12-05T18:21:02;4.87;;;3.77;;